createdAt,value
2022-08-14T00:00:24.305Z,5.80
2022-08-14T00:01:15.951Z,5.30
2022-08-14T00:02:14.238Z,5.07
2022-08-14T00:03:05.122Z,5.37
2022-08-14T00:03:57.022Z,4.95
2022-08-14T00:04:47.872Z,5.30
2022-08-14T00:05:38.602Z,5.10
2022-08-14T00:06:35.178Z,5.15
2022-08-14T00:07:28.395Z,5.10
2022-08-14T00:08:44.609Z,5.20
2022-08-14T00:09:29.823Z,5.05
2022-08-14T00:10:52.121Z,4.82
2022-08-14T00:11:34.417Z,5.40
2022-08-14T00:12:33.828Z,5.00
2022-08-14T00:13:30.999Z,5.25
2022-08-14T00:14:21.977Z,5.57
2022-08-14T00:15:21.941Z,4.90
2022-08-14T00:16:41.764Z,5.07
2022-08-14T00:17:26.954Z,5.37
2022-08-14T00:18:30.540Z,5.20
2022-08-14T00:19:32.475Z,5.07
2022-08-14T00:20:30.957Z,4.87
2022-08-14T00:21:28.242Z,5.12
2022-08-14T00:22:56.600Z,5.10
2022-08-14T00:23:33.000Z,5.18
2022-08-14T00:24:28.958Z,4.57
2022-08-14T00:25:21.886Z,5.22
2022-08-14T00:26:21.632Z,5.05
2022-08-14T00:27:16.666Z,5.10
2022-08-14T00:28:09.264Z,5.25
2022-08-14T00:28:59.968Z,5.18
2022-08-14T00:29:51.896Z,5.12
2022-08-14T00:30:42.923Z,5.05
2022-08-14T00:31:44.172Z,4.97
2022-08-14T00:33:01.632Z,4.80
2022-08-14T00:33:52.101Z,4.93
2022-08-14T00:34:46.859Z,5.37
2022-08-14T00:36:34.285Z,4.80
2022-08-14T00:36:48.614Z,4.80
2022-08-14T00:37:44.605Z,4.82
2022-08-14T00:38:35.253Z,5.03
2022-08-14T00:39:26.011Z,5.22
2022-08-14T00:40:27.352Z,5.50
2022-08-14T00:41:24.631Z,5.28
2022-08-14T00:42:21.422Z,5.00
2022-08-14T00:43:32.276Z,5.40
2022-08-14T00:44:31.888Z,4.93
2022-08-14T00:45:23.980Z,4.82
2022-08-14T00:46:32.839Z,4.93
2022-08-14T00:47:25.707Z,5.00
2022-08-14T00:48:34.458Z,4.93
2022-08-14T00:49:30.111Z,4.82
2022-08-14T00:50:22.003Z,5.28
2022-08-14T00:51:12.246Z,5.20
2022-08-14T00:52:03.418Z,5.20
2022-08-14T00:52:55.995Z,4.80
2022-08-14T00:53:50.324Z,5.07
2022-08-14T00:54:44.046Z,5.32
2022-08-14T00:55:36.512Z,5.10
2022-08-14T00:56:31.276Z,4.87
2022-08-14T00:57:22.623Z,4.82
2022-08-14T00:58:32.957Z,4.90
2022-08-14T00:59:28.401Z,4.78
2022-08-14T01:00:34.081Z,5.05
2022-08-14T01:01:29.663Z,5.05
2022-08-14T01:02:24.978Z,4.82
2022-08-14T01:03:19.565Z,4.80
2022-08-14T01:04:50.963Z,5.10
2022-08-14T01:05:25.815Z,5.15
2022-08-14T01:06:34.389Z,4.90
2022-08-14T01:07:27.221Z,4.90
2022-08-14T01:08:51.317Z,5.03
2022-08-14T01:09:34.687Z,5.10
2022-08-14T01:10:45.995Z,4.80
2022-08-14T01:12:03.291Z,5.03
2022-08-14T01:13:08.448Z,5.07
2022-08-14T01:14:35.987Z,5.07
2022-08-14T01:15:31.742Z,5.07
2022-08-14T01:16:37.189Z,5.25
2022-08-14T01:17:49.744Z,5.05
2022-08-14T01:19:02.105Z,5.00
2022-08-14T01:20:27.859Z,5.05
2022-08-14T01:21:38.792Z,5.30
2022-08-14T01:22:38.009Z,5.00
2022-08-14T01:23:46.702Z,4.80
2022-08-14T01:24:38.222Z,4.90
2022-08-14T01:25:28.706Z,4.95
2022-08-14T01:26:35.799Z,5.00
2022-08-14T01:27:30.529Z,5.00
2022-08-14T01:28:46.063Z,5.10
2022-08-14T01:29:59.259Z,4.93
2022-08-14T01:30:50.141Z,5.28
2022-08-14T01:31:52.456Z,5.10
2022-08-14T01:32:43.238Z,4.82
2022-08-14T01:33:52.196Z,4.70
2022-08-14T01:35:18.699Z,5.35
2022-08-14T01:36:07.454Z,5.00
2022-08-14T01:37:11.482Z,5.18
2022-08-14T01:38:02.015Z,4.75
2022-08-14T01:38:59.365Z,4.85
2022-08-14T01:39:51.510Z,4.72
2022-08-14T01:40:47.337Z,5.18
2022-08-14T01:41:39.683Z,4.82
2022-08-14T01:42:44.359Z,4.93
2022-08-14T01:43:56.656Z,5.00
2022-08-14T01:44:54.366Z,4.87
2022-08-14T01:45:49.101Z,5.05
2022-08-14T01:47:01.305Z,5.10
2022-08-14T01:47:51.990Z,4.87
2022-08-14T01:48:54.357Z,5.10
2022-08-14T01:49:59.082Z,5.05
2022-08-14T01:50:50.701Z,4.62
2022-08-14T01:51:43.734Z,5.10
2022-08-14T01:52:58.718Z,5.03
2022-08-14T01:53:48.075Z,5.03
2022-08-14T01:54:45.727Z,4.68
2022-08-14T01:55:51.693Z,5.20
2022-08-14T01:56:43.006Z,4.85
2022-08-14T01:58:01.677Z,5.12
2022-08-14T01:58:57.609Z,4.80
2022-08-14T01:59:50.361Z,4.90
2022-08-14T02:00:41.427Z,5.00
2022-08-14T02:01:32.558Z,5.20
2022-08-14T02:02:26.650Z,4.50
2022-08-14T02:03:16.948Z,4.80
2022-08-14T02:04:40.601Z,4.70
2022-08-14T02:05:18.006Z,4.90
2022-08-14T02:06:33.268Z,5.00
2022-08-14T02:07:34.318Z,4.70
2022-08-14T02:08:35.426Z,4.40
2022-08-14T02:09:27.999Z,5.07
2022-08-14T02:10:26.303Z,4.60
2022-08-14T02:11:18.939Z,4.82
2022-08-14T02:12:10.765Z,4.65
2022-08-14T02:13:11.143Z,4.93
2022-08-14T02:14:14.123Z,4.65
2022-08-14T02:15:05.740Z,5.00
2022-08-14T02:16:00.368Z,4.82
2022-08-14T02:17:13.463Z,4.87
2022-08-14T02:18:04.748Z,5.07
2022-08-14T02:18:56.538Z,5.05
2022-08-14T02:19:48.726Z,4.80
2022-08-14T02:20:42.748Z,5.03
2022-08-14T02:21:43.779Z,4.97
2022-08-14T02:22:47.389Z,4.90
2022-08-14T02:23:39.784Z,4.90
2022-08-14T02:24:39.724Z,4.93
2022-08-14T02:25:32.347Z,4.87
2022-08-14T02:26:29.149Z,5.00
2022-08-14T02:28:25.585Z,4.90
2022-08-14T02:28:57.343Z,5.20
2022-08-14T02:29:59.969Z,4.97
2022-08-14T02:30:54.135Z,5.15
2022-08-14T02:32:06.210Z,4.75
2022-08-14T02:33:16.457Z,5.22
2022-08-14T02:34:19.947Z,5.22
2022-08-14T02:35:21.985Z,5.12
2022-08-14T02:37:02.652Z,5.18
2022-08-14T02:37:23.344Z,5.22
2022-08-14T02:38:35.336Z,4.85
2022-08-14T02:39:26.463Z,4.87
2022-08-14T02:40:19.048Z,5.00
2022-08-14T02:41:11.120Z,4.87
2022-08-14T02:42:04.281Z,4.90
2022-08-14T02:42:57.732Z,4.68
2022-08-14T02:43:48.751Z,4.43
2022-08-14T02:44:40.845Z,4.55
2022-08-14T02:45:53.511Z,4.70
2022-08-14T02:47:03.652Z,4.80
2022-08-14T02:49:02.063Z,4.85
2022-08-14T02:49:33.096Z,4.90
2022-08-14T02:50:42.821Z,5.10
2022-08-14T02:51:54.219Z,4.87
2022-08-14T02:53:05.204Z,4.60
2022-08-14T02:54:19.697Z,5.03
2022-08-14T02:55:26.261Z,4.62
2022-08-14T02:57:13.588Z,5.15
2022-08-14T02:58:02.940Z,5.05
2022-08-14T02:59:02.031Z,4.87
2022-08-14T03:00:18.670Z,4.97
2022-08-14T03:01:26.249Z,4.85
2022-08-14T03:02:56.153Z,4.70
2022-08-14T03:03:46.703Z,4.60
2022-08-14T03:04:37.807Z,5.00
2022-08-14T03:05:35.783Z,4.90
2022-08-14T03:06:34.891Z,4.82
2022-08-14T03:07:38.520Z,4.82
2022-08-14T03:08:33.765Z,5.05
2022-08-14T03:09:24.634Z,5.12
2022-08-14T03:10:26.629Z,4.80
2022-08-14T03:12:17.929Z,4.62
2022-08-14T03:13:22.077Z,4.90
2022-08-14T03:14:15.455Z,4.47
2022-08-14T03:15:16.149Z,4.82
2022-08-14T03:16:26.532Z,4.78
2022-08-14T03:17:18.057Z,4.40
2022-08-14T03:18:12.594Z,4.72
2022-08-14T03:19:09.196Z,4.72
2022-08-14T03:20:04.879Z,4.68
2022-08-14T03:20:56.471Z,4.72
2022-08-14T03:21:46.901Z,4.85
2022-08-14T03:22:44.168Z,4.53
2022-08-14T03:23:41.260Z,4.70
2022-08-14T03:24:33.365Z,5.03
2022-08-14T03:25:24.322Z,4.50
2022-08-14T03:26:29.641Z,4.82
2022-08-14T03:27:20.603Z,4.93
2022-08-14T03:28:33.289Z,4.70
2022-08-14T03:29:26.166Z,4.97
2022-08-14T03:30:23.443Z,4.60
2022-08-14T03:31:15.424Z,4.78
2022-08-14T03:32:06.560Z,4.55
2022-08-14T03:32:58.920Z,4.78
2022-08-14T03:33:51.622Z,4.70
2022-08-14T03:34:48.299Z,4.57
2022-08-14T03:36:05.610Z,4.40
2022-08-14T03:37:50.882Z,4.30
2022-08-14T03:39:13.884Z,4.53
2022-08-14T03:39:22.871Z,4.55
2022-08-14T03:40:18.355Z,4.62
2022-08-14T03:41:16.556Z,4.80
2022-08-14T03:42:19.151Z,4.50
2022-08-14T03:43:10.800Z,4.78
2022-08-14T03:45:18.799Z,4.50
2022-08-14T03:45:25.102Z,4.60
2022-08-14T03:46:39.143Z,4.55
2022-08-14T03:47:46.551Z,4.50
2022-08-14T03:48:49.507Z,4.53
2022-08-14T03:49:50.153Z,4.32
2022-08-14T03:50:44.508Z,4.50
2022-08-14T03:51:38.552Z,4.40
2022-08-14T03:52:40.856Z,4.25
2022-08-14T03:53:38.651Z,4.45
2022-08-14T03:54:29.461Z,4.80
2022-08-14T03:55:24.158Z,4.30
2022-08-14T03:56:18.021Z,4.65
2022-08-14T03:57:12.252Z,4.20
2022-08-14T03:58:02.678Z,5.03
2022-08-14T03:58:58.538Z,4.43
2022-08-14T03:59:49.352Z,4.20
2022-08-14T04:00:44.576Z,4.10
2022-08-14T04:01:41.506Z,4.37
2022-08-14T04:02:37.367Z,4.35
2022-08-14T04:03:28.152Z,5.00
2022-08-14T04:04:19.619Z,4.53
2022-08-14T04:05:12.616Z,4.70
2022-08-14T04:06:03.899Z,4.62
2022-08-14T04:06:58.813Z,4.72
2022-08-14T04:08:00.469Z,4.70
2022-08-14T04:08:59.452Z,4.43
2022-08-14T04:09:49.809Z,4.45
2022-08-14T04:10:43.005Z,4.93
2022-08-14T04:11:38.423Z,4.70
2022-08-14T04:12:28.695Z,4.50
2022-08-14T04:13:20.430Z,4.70
2022-08-14T04:14:15.776Z,4.47
2022-08-14T04:15:07.928Z,4.53
2022-08-14T04:16:02.439Z,4.70
2022-08-14T04:16:55.978Z,4.97
2022-08-14T04:17:46.574Z,4.75
2022-08-14T04:18:42.293Z,4.53
2022-08-14T04:19:36.513Z,4.57
2022-08-14T04:20:27.265Z,4.40
2022-08-14T04:21:18.129Z,4.72
2022-08-14T04:22:08.839Z,4.78
2022-08-14T04:23:07.101Z,4.80
2022-08-14T04:24:09.503Z,4.72
2022-08-14T04:25:04.974Z,4.50
2022-08-14T04:25:55.896Z,4.45
2022-08-14T04:26:47.309Z,4.70
2022-08-14T04:27:48.568Z,4.50
2022-08-14T04:29:09.146Z,4.68
2022-08-14T04:30:00.615Z,4.50
2022-08-14T04:30:56.175Z,4.47
2022-08-14T04:33:00.795Z,4.47
2022-08-14T04:33:07.362Z,4.68
2022-08-14T04:34:05.492Z,4.50
2022-08-14T04:34:58.799Z,4.55
2022-08-14T04:35:56.063Z,4.10
2022-08-14T04:37:07.216Z,4.32
2022-08-14T04:38:36.837Z,4.37
2022-08-14T04:39:46.498Z,4.45
2022-08-14T04:40:56.303Z,4.60
2022-08-14T04:42:11.813Z,4.55
2022-08-14T04:43:23.828Z,4.60
2022-08-14T04:44:26.551Z,4.55
2022-08-14T04:45:25.850Z,4.47
2022-08-14T04:46:55.817Z,4.57
2022-08-14T04:47:53.639Z,4.32
2022-08-14T04:48:51.329Z,4.23
2022-08-14T04:49:57.353Z,4.30
2022-08-14T04:50:53.943Z,4.30
2022-08-14T04:51:46.815Z,4.32
2022-08-14T04:52:53.968Z,4.37
2022-08-14T04:53:48.306Z,4.22
2022-08-14T04:54:39.062Z,4.22
2022-08-14T04:55:29.947Z,4.35
2022-08-14T04:56:31.645Z,4.60
2022-08-14T04:57:25.536Z,4.37
2022-08-14T04:58:21.834Z,4.40
2022-08-14T04:59:28.168Z,4.82
2022-08-14T05:00:20.239Z,4.35
2022-08-14T05:01:19.527Z,4.60
2022-08-14T05:02:10.576Z,4.40
2022-08-14T05:03:03.555Z,4.32
2022-08-14T05:03:58.127Z,4.70
2022-08-14T05:04:57.307Z,4.50
2022-08-14T05:05:51.980Z,4.87
2022-08-14T05:06:45.211Z,4.62
2022-08-14T05:07:54.097Z,4.65
2022-08-14T05:08:57.137Z,4.30
2022-08-14T05:09:50.589Z,4.35
2022-08-14T05:10:44.942Z,4.60
2022-08-14T05:11:36.494Z,4.65
2022-08-14T05:13:24.369Z,4.50
2022-08-14T05:14:16.162Z,4.62
2022-08-14T05:14:54.886Z,4.68
2022-08-14T05:15:46.499Z,4.60
2022-08-14T05:16:39.749Z,4.30
2022-08-14T05:17:44.202Z,4.55
2022-08-14T05:19:17.714Z,4.85
2022-08-14T05:21:55.937Z,4.57
2022-08-14T05:21:56.100Z,4.50
2022-08-14T05:22:19.183Z,4.50
2022-08-14T05:23:11.505Z,4.60
2022-08-14T05:24:04.482Z,4.45
2022-08-14T05:24:56.554Z,4.57
2022-08-14T05:25:51.406Z,4.30
2022-08-14T05:26:44.640Z,4.85
2022-08-14T05:27:38.267Z,4.47
2022-08-14T05:28:32.219Z,4.90
2022-08-14T05:29:23.824Z,4.62
2022-08-14T05:30:16.613Z,4.72
2022-08-14T05:31:07.385Z,4.60
2022-08-14T05:31:58.763Z,4.12
2022-08-14T05:32:49.556Z,4.82
2022-08-14T05:33:40.608Z,4.32
2022-08-14T05:34:32.235Z,4.65
2022-08-14T05:35:25.340Z,4.90
2022-08-14T05:36:16.951Z,4.70
2022-08-14T05:37:08.051Z,4.37
2022-08-14T05:38:01.340Z,4.90
2022-08-14T05:39:01.860Z,4.87
2022-08-14T05:39:54.325Z,4.87
2022-08-14T05:40:45.149Z,5.00
2022-08-14T05:41:52.872Z,5.18
2022-08-14T05:42:46.709Z,4.87
2022-08-14T05:43:47.724Z,5.30
2022-08-14T05:44:40.467Z,4.60
2022-08-14T05:45:37.395Z,4.68
2022-08-14T05:46:28.406Z,5.05
2022-08-14T05:47:20.997Z,4.53
2022-08-14T05:48:14.515Z,5.10
2022-08-14T05:49:33.366Z,4.80
2022-08-14T05:50:24.466Z,5.57
2022-08-14T05:51:20.934Z,5.85
2022-08-14T05:52:11.519Z,6.65
2022-08-14T05:53:09.017Z,6.10
2022-08-14T05:54:13.705Z,6.35
2022-08-14T05:55:11.482Z,7.45
2022-08-14T05:56:02.013Z,6.68
2022-08-14T05:57:12.946Z,6.28
2022-08-14T05:58:40.766Z,6.37
2022-08-14T05:59:39.170Z,7.50
2022-08-14T06:00:46.406Z,6.68
2022-08-14T06:01:57.376Z,6.70
2022-08-14T06:03:09.689Z,6.40
2022-08-14T06:04:32.777Z,5.95
2022-08-14T06:05:47.787Z,5.70
2022-08-14T06:07:04.928Z,6.70
2022-08-14T06:07:54.362Z,5.97
2022-08-14T06:08:47.968Z,6.20
2022-08-14T06:09:40.416Z,5.80
2022-08-14T06:10:31.641Z,5.90
2022-08-14T06:11:31.192Z,5.97
2022-08-14T06:12:55.805Z,5.55
2022-08-14T06:13:41.159Z,5.80
2022-08-14T06:14:36.923Z,5.62
2022-08-14T06:15:30.355Z,5.43
2022-08-14T06:16:21.573Z,5.40
2022-08-14T06:17:25.997Z,6.00
2022-08-14T06:18:17.663Z,5.60
2022-08-14T06:19:11.483Z,5.93
2022-08-14T06:20:10.249Z,5.10
2022-08-14T06:21:01.546Z,5.55
2022-08-14T06:21:58.988Z,5.28
2022-08-14T06:22:50.587Z,5.53
2022-08-14T06:23:42.334Z,5.65
2022-08-14T06:24:34.740Z,5.32
2022-08-14T06:25:26.133Z,5.40
2022-08-14T06:26:20.910Z,5.37
2022-08-14T06:27:12.005Z,5.32
2022-08-14T06:28:04.093Z,5.25
2022-08-14T06:28:54.896Z,5.47
2022-08-14T06:29:46.535Z,5.25
2022-08-14T06:30:45.640Z,5.15
2022-08-14T06:31:37.865Z,5.70
2022-08-14T06:32:36.478Z,5.53
2022-08-14T06:35:03.104Z,5.18
2022-08-14T06:35:11.479Z,5.22
2022-08-14T06:36:02.295Z,5.43
2022-08-14T06:36:56.616Z,5.00
2022-08-14T06:37:58.794Z,5.00
2022-08-14T06:38:50.974Z,5.05
2022-08-14T06:39:42.348Z,5.07
2022-08-14T06:40:36.513Z,5.40
2022-08-14T06:41:57.102Z,4.97
2022-08-14T06:42:41.614Z,5.45
2022-08-14T06:43:32.627Z,4.93
2022-08-14T06:44:30.608Z,5.10
2022-08-14T06:45:26.062Z,4.78
2022-08-14T06:46:23.164Z,4.90
2022-08-14T06:47:24.015Z,4.95
2022-08-14T06:48:23.978Z,4.80
2022-08-14T06:49:14.504Z,5.50
2022-08-14T06:50:05.973Z,4.80
2022-08-14T06:50:58.972Z,4.70
2022-08-14T06:51:50.007Z,4.68
2022-08-14T06:52:50.358Z,4.80
2022-08-14T06:53:42.814Z,4.93
2022-08-14T06:54:33.797Z,5.00
2022-08-14T06:55:27.639Z,4.68
2022-08-14T06:56:18.316Z,5.10
2022-08-14T06:57:12.038Z,4.70
2022-08-14T06:58:03.760Z,5.00
2022-08-14T06:58:54.573Z,5.18
2022-08-14T06:59:46.255Z,4.87
2022-08-14T07:00:36.887Z,4.57
2022-08-14T07:01:48.186Z,4.68
2022-08-14T07:02:59.310Z,4.75
2022-08-14T07:04:22.716Z,4.85
2022-08-14T07:05:35.004Z,5.15
2022-08-14T07:06:46.332Z,5.03
2022-08-14T07:07:39.797Z,5.15
2022-08-14T07:08:31.550Z,5.20
2022-08-14T07:09:23.423Z,5.18
2022-08-14T07:10:17.245Z,5.40
2022-08-14T07:11:08.385Z,5.20
2022-08-14T07:12:00.746Z,5.50
2022-08-14T07:13:01.275Z,5.28
2022-08-14T07:13:54.010Z,5.30
2022-08-14T07:14:45.784Z,5.05
2022-08-14T07:15:39.977Z,5.22
2022-08-14T07:16:33.380Z,5.10
2022-08-14T07:17:23.932Z,5.03
2022-08-14T07:18:15.440Z,5.30
2022-08-14T07:19:08.390Z,5.28
2022-08-14T07:20:00.827Z,5.40
2022-08-14T07:20:56.370Z,5.00
2022-08-14T07:21:47.041Z,4.85
2022-08-14T07:22:55.928Z,5.22
2022-08-14T07:23:47.607Z,4.95
2022-08-14T07:25:04.971Z,5.05
2022-08-14T07:25:56.704Z,4.82
2022-08-14T07:26:48.950Z,4.80
2022-08-14T07:27:40.926Z,4.80
2022-08-14T07:28:35.948Z,5.03
2022-08-14T07:29:34.033Z,4.85
2022-08-14T07:30:34.300Z,4.82
2022-08-14T07:31:25.920Z,5.37
2022-08-14T07:32:22.177Z,5.18
2022-08-14T07:33:29.054Z,5.18
2022-08-14T07:34:26.322Z,4.70
2022-08-14T07:35:37.353Z,5.15
2022-08-14T07:36:38.737Z,4.85
2022-08-14T07:37:49.706Z,4.75
2022-08-14T07:38:43.538Z,5.00
2022-08-14T07:39:43.946Z,5.05
2022-08-14T07:40:34.639Z,4.78
2022-08-14T07:41:34.056Z,4.90
2022-08-14T07:42:26.825Z,4.68
2022-08-14T07:43:18.024Z,4.62
2022-08-14T07:44:29.326Z,4.78
2022-08-14T07:45:22.530Z,4.80
2022-08-14T07:46:14.408Z,4.80
2022-08-14T07:48:14.820Z,5.30
2022-08-14T07:49:07.981Z,5.07
2022-08-14T07:50:16.464Z,4.85
2022-08-14T07:51:10.794Z,4.85
2022-08-14T07:52:03.256Z,5.28
2022-08-14T07:52:55.069Z,4.80
2022-08-14T07:53:46.752Z,4.70
2022-08-14T07:54:38.126Z,5.30
2022-08-14T07:55:29.827Z,5.10
2022-08-14T07:56:47.627Z,4.85
2022-08-14T07:57:32.117Z,4.95
2022-08-14T07:58:34.339Z,5.05
2022-08-14T07:59:42.291Z,4.70
2022-08-14T08:00:35.479Z,4.65
2022-08-14T08:01:29.908Z,4.97
2022-08-14T08:02:44.726Z,5.07
2022-08-14T08:03:59.421Z,4.97
2022-08-14T08:04:58.960Z,5.25
2022-08-14T08:05:50.379Z,4.80
2022-08-14T08:06:44.156Z,4.90
2022-08-14T08:07:34.729Z,5.12
2022-08-14T08:08:32.775Z,4.68
2022-08-14T08:09:31.778Z,4.90
2022-08-14T08:11:01.492Z,4.57
2022-08-14T08:11:42.881Z,4.80
2022-08-14T08:12:43.548Z,4.50
2022-08-14T08:13:34.917Z,4.87
2022-08-14T08:14:31.250Z,4.80
2022-08-14T08:15:27.353Z,4.68
2022-08-14T08:16:23.986Z,4.97
2022-08-14T08:17:24.993Z,5.00
2022-08-14T08:18:20.493Z,4.57
2022-08-14T08:19:19.364Z,4.50
2022-08-14T08:20:15.783Z,4.93
2022-08-14T08:21:08.578Z,4.87
2022-08-14T08:22:03.361Z,4.75
2022-08-14T08:23:00.368Z,4.78
2022-08-14T08:23:51.665Z,5.22
2022-08-14T08:24:43.342Z,4.50
2022-08-14T08:25:40.167Z,4.55
2022-08-14T08:26:33.229Z,4.70
2022-08-14T08:27:25.050Z,4.50
2022-08-14T08:28:25.553Z,4.70
2022-08-14T08:29:28.654Z,4.95
2022-08-14T08:30:19.717Z,4.97
2022-08-14T08:31:12.819Z,4.85
2022-08-14T08:32:05.922Z,4.60
2022-08-14T08:32:59.090Z,4.80
2022-08-14T08:33:53.088Z,4.75
2022-08-14T08:34:49.709Z,4.65
2022-08-14T08:35:47.026Z,4.72
2022-08-14T08:36:42.147Z,4.90
2022-08-14T08:37:40.298Z,4.68
2022-08-14T08:39:17.567Z,4.90
2022-08-14T08:40:03.248Z,4.82
2022-08-14T08:41:00.043Z,4.32
2022-08-14T08:41:53.778Z,4.70
2022-08-14T08:42:45.060Z,4.57
2022-08-14T08:43:36.759Z,4.47
2022-08-14T08:44:35.392Z,4.70
2022-08-14T08:45:27.820Z,4.78
2022-08-14T08:46:23.902Z,4.60
2022-08-14T08:47:15.928Z,4.70
2022-08-14T08:48:17.921Z,4.50
2022-08-14T08:49:10.720Z,4.60
2022-08-14T08:50:02.006Z,4.75
2022-08-14T08:51:30.560Z,4.97
2022-08-14T08:52:25.245Z,5.00
2022-08-14T08:53:22.505Z,4.60
2022-08-14T08:54:18.447Z,4.80
2022-08-14T08:55:10.702Z,4.65
2022-08-14T08:56:03.750Z,4.72
2022-08-14T08:56:57.611Z,4.80
2022-08-14T08:57:48.754Z,4.65
2022-08-14T08:58:39.218Z,4.75
2022-08-14T08:59:34.251Z,5.30
2022-08-14T09:00:26.430Z,4.65
2022-08-14T09:01:18.899Z,4.70
2022-08-14T09:02:11.012Z,4.90
2022-08-14T09:03:12.000Z,5.20
2022-08-14T09:04:04.388Z,4.60
2022-08-14T09:05:09.394Z,4.55
2022-08-14T09:06:03.924Z,4.43
2022-08-14T09:07:10.317Z,4.55
2022-08-14T09:08:30.203Z,4.60
2022-08-14T09:09:25.532Z,4.70
2022-08-14T09:10:23.421Z,4.75
2022-08-14T09:11:18.981Z,4.62
2022-08-14T09:12:13.818Z,5.03
2022-08-14T09:13:05.393Z,4.68
2022-08-14T09:13:57.916Z,5.10
2022-08-14T09:14:49.097Z,5.18
2022-08-14T09:15:45.312Z,4.90
2022-08-14T09:16:36.850Z,4.85
2022-08-14T09:17:27.373Z,5.03
2022-08-14T09:18:19.593Z,4.80
2022-08-14T09:19:12.794Z,4.50
2022-08-14T09:20:04.589Z,4.78
2022-08-14T09:20:58.777Z,4.80
2022-08-14T09:21:49.606Z,4.68
2022-08-14T09:22:48.744Z,4.85
2022-08-14T09:24:26.453Z,4.78
2022-08-14T09:24:51.947Z,4.55
2022-08-14T09:26:00.864Z,4.93
2022-08-14T09:26:53.051Z,4.97
2022-08-14T09:27:44.006Z,5.10
2022-08-14T09:28:35.538Z,4.80
2022-08-14T09:29:28.738Z,4.57
2022-08-14T09:30:32.048Z,4.72
2022-08-14T09:31:42.522Z,4.80
2022-08-14T09:34:34.734Z,4.53
2022-08-14T09:35:56.562Z,4.95
2022-08-14T09:36:56.828Z,4.60
2022-08-14T09:38:19.620Z,4.70
2022-08-14T09:39:45.874Z,5.00
2022-08-14T09:40:47.736Z,4.80
2022-08-14T09:42:21.297Z,4.45
2022-08-14T09:43:30.563Z,4.62
2022-08-14T09:44:45.736Z,4.70
2022-08-14T09:45:52.976Z,4.78
2022-08-14T09:46:57.973Z,4.82
2022-08-14T09:47:52.505Z,4.22
2022-08-14T09:48:43.280Z,4.65
2022-08-14T09:49:40.687Z,4.97
2022-08-14T09:50:36.734Z,4.93
2022-08-14T09:51:32.634Z,5.03
2022-08-14T09:52:34.036Z,5.10
2022-08-14T09:54:12.891Z,4.68
2022-08-14T09:54:48.141Z,4.68
2022-08-14T09:55:42.348Z,4.55
2022-08-14T09:56:56.594Z,5.10
2022-08-14T09:57:48.670Z,4.80
2022-08-14T09:58:40.551Z,5.00
2022-08-14T09:59:50.494Z,4.80
2022-08-14T10:00:57.554Z,5.00
2022-08-14T10:01:52.957Z,4.70
2022-08-14T10:02:56.640Z,4.78
2022-08-14T10:03:49.011Z,4.70
2022-08-14T10:04:46.160Z,4.87
2022-08-14T10:05:41.161Z,4.70
2022-08-14T10:06:33.020Z,5.15
2022-08-14T10:07:31.756Z,4.22
2022-08-14T10:08:26.329Z,4.72
2022-08-14T10:09:35.302Z,5.00
2022-08-14T10:10:43.968Z,4.60
2022-08-14T10:11:59.055Z,4.72
2022-08-14T10:12:53.186Z,4.70
2022-08-14T10:13:53.424Z,4.78
2022-08-14T10:14:44.368Z,4.82
2022-08-14T10:15:46.098Z,4.60
2022-08-14T10:16:42.323Z,4.80
2022-08-14T10:17:38.985Z,4.65
2022-08-14T10:18:31.550Z,4.70
2022-08-14T10:19:28.093Z,4.50
2022-08-14T10:20:40.177Z,4.62
2022-08-14T10:21:38.694Z,4.90
2022-08-14T10:23:12.652Z,4.78
2022-08-14T10:23:52.507Z,4.75
2022-08-14T10:24:46.379Z,5.10
2022-08-14T10:25:47.502Z,4.85
2022-08-14T10:26:40.223Z,4.82
2022-08-14T10:27:32.209Z,4.93
2022-08-14T10:28:39.022Z,4.87
2022-08-14T10:29:40.880Z,4.80
2022-08-14T10:30:35.569Z,4.30
2022-08-14T10:31:29.669Z,4.40
2022-08-14T10:32:39.929Z,4.83
2022-08-14T10:33:33.324Z,4.43
2022-08-14T10:34:36.649Z,4.70
2022-08-14T10:35:30.956Z,4.37
2022-08-14T10:36:37.137Z,4.60
2022-08-14T10:37:41.731Z,4.80
2022-08-14T10:38:36.147Z,4.78
2022-08-14T10:39:26.511Z,4.45
2022-08-14T10:40:43.301Z,4.97
2022-08-14T10:41:48.432Z,4.70
2022-08-14T10:42:47.032Z,4.75
2022-08-14T10:43:37.364Z,4.75
2022-08-14T10:44:35.408Z,4.35
2022-08-14T10:45:35.820Z,4.60
2022-08-14T10:47:36.467Z,4.75
2022-08-14T10:48:08.081Z,4.55
2022-08-14T10:49:04.397Z,4.55
2022-08-14T10:49:58.642Z,4.32
2022-08-14T10:50:51.735Z,4.60
2022-08-14T10:51:42.384Z,4.45
2022-08-14T10:52:38.292Z,5.30
2022-08-14T10:53:33.584Z,4.60
2022-08-14T10:54:39.939Z,4.70
2022-08-14T10:55:39.484Z,5.00
2022-08-14T10:56:36.756Z,5.00
2022-08-14T10:57:27.795Z,5.03
2022-08-14T10:58:27.814Z,5.12
2022-08-14T10:59:34.954Z,4.93
2022-08-14T11:00:30.228Z,5.03
2022-08-14T11:01:31.550Z,5.03
2022-08-14T11:02:36.140Z,5.03
2022-08-14T11:03:55.496Z,4.55
2022-08-14T11:05:01.009Z,4.95
2022-08-14T11:05:56.221Z,4.72
2022-08-14T11:06:56.302Z,5.20
2022-08-14T11:07:56.445Z,4.95
2022-08-14T11:08:48.316Z,5.50
2022-08-14T11:09:56.312Z,5.18
2022-08-14T11:11:06.001Z,4.90
2022-08-14T11:12:40.125Z,5.07
2022-08-14T11:13:08.922Z,5.28
2022-08-14T11:13:59.677Z,5.07
2022-08-14T11:14:59.192Z,4.93
2022-08-14T11:15:50.777Z,5.35
2022-08-14T11:16:53.432Z,4.95
2022-08-14T11:17:47.249Z,5.00
2022-08-14T11:18:44.174Z,4.93
2022-08-14T11:19:36.367Z,4.70
2022-08-14T11:20:27.954Z,5.00
2022-08-14T11:21:23.279Z,4.82
2022-08-14T11:22:15.567Z,5.30
2022-08-14T11:23:37.893Z,5.10
2022-08-14T11:24:55.159Z,4.87
2022-08-14T11:25:53.370Z,5.05
2022-08-14T11:26:45.592Z,5.00
2022-08-14T11:27:39.105Z,4.90
2022-08-14T11:28:48.037Z,5.10
2022-08-14T11:29:40.374Z,5.20
2022-08-14T11:30:50.242Z,4.95
2022-08-14T11:31:41.730Z,5.03
2022-08-14T11:32:32.165Z,4.90
2022-08-14T11:33:25.091Z,5.18
2022-08-14T11:34:32.468Z,5.07
2022-08-14T11:35:27.254Z,4.90
2022-08-14T11:37:02.188Z,4.90
2022-08-14T11:37:59.595Z,4.80
2022-08-14T11:38:50.662Z,5.07
2022-08-14T11:39:45.517Z,4.68
2022-08-14T11:40:37.787Z,4.85
2022-08-14T11:41:29.704Z,5.15
2022-08-14T11:42:57.577Z,4.93
2022-08-14T11:43:49.471Z,4.53
2022-08-14T11:44:49.713Z,5.03
2022-08-14T11:45:48.904Z,4.97
2022-08-14T11:46:41.235Z,4.80
2022-08-14T11:47:35.161Z,4.93
2022-08-14T11:49:03.993Z,5.30
2022-08-14T11:49:44.625Z,5.00
2022-08-14T11:50:38.203Z,4.70
2022-08-14T11:51:30.470Z,4.93
2022-08-14T11:52:21.713Z,4.87
2022-08-14T11:53:31.261Z,5.10
2022-08-14T11:54:34.431Z,5.10
2022-08-14T11:55:28.766Z,4.90
2022-08-14T11:56:25.220Z,5.00
2022-08-14T11:57:18.762Z,4.87
2022-08-14T11:58:23.866Z,4.80
2022-08-14T11:59:18.095Z,4.82
2022-08-14T12:00:10.677Z,4.72
2022-08-14T12:01:07.484Z,5.00
2022-08-14T12:02:39.164Z,5.05
2022-08-14T12:03:59.218Z,4.93
2022-08-14T12:04:52.638Z,4.80
2022-08-14T12:05:43.783Z,5.00
2022-08-14T12:06:55.810Z,4.50
2022-08-14T12:07:50.640Z,4.95
2022-08-14T12:09:02.764Z,4.30
2022-08-14T12:10:26.299Z,4.90
2022-08-14T12:11:23.685Z,5.10
2022-08-14T12:12:35.845Z,5.30
2022-08-14T12:13:28.216Z,4.80
2022-08-14T12:14:30.690Z,5.03
2022-08-14T12:15:34.163Z,4.60
2022-08-14T12:16:26.842Z,5.03
2022-08-14T12:17:23.933Z,4.90
2022-08-14T12:18:19.587Z,4.93
2022-08-14T12:19:10.074Z,4.45
2022-08-14T12:20:05.949Z,4.87
2022-08-14T12:20:59.921Z,4.75
2022-08-14T12:21:51.783Z,4.90
2022-08-14T12:22:45.887Z,4.68
2022-08-14T12:23:44.314Z,4.90
2022-08-14T12:24:39.943Z,4.80
2022-08-14T12:25:30.911Z,4.80
2022-08-14T12:26:25.021Z,4.62
2022-08-14T12:27:53.552Z,4.90
2022-08-14T12:28:59.285Z,4.78
2022-08-14T12:29:54.067Z,5.10
2022-08-14T12:30:45.404Z,4.80
2022-08-14T12:31:44.924Z,5.00
2022-08-14T12:32:44.683Z,4.65
2022-08-14T12:33:35.554Z,5.00
2022-08-14T12:34:31.608Z,4.93
2022-08-14T12:35:23.864Z,4.80
2022-08-14T12:36:23.738Z,4.60
2022-08-14T12:37:16.328Z,5.25
2022-08-14T12:38:19.382Z,5.10
2022-08-14T12:39:23.795Z,4.78
2022-08-14T12:40:19.591Z,4.72
2022-08-14T12:41:20.692Z,5.03
2022-08-14T12:42:53.872Z,5.10
2022-08-14T12:44:02.136Z,4.90
2022-08-14T12:44:53.154Z,4.68
2022-08-14T12:45:49.946Z,4.47
2022-08-14T12:46:43.705Z,4.90
2022-08-14T12:47:38.371Z,4.70
2022-08-14T12:48:32.217Z,4.50
2022-08-14T12:49:25.973Z,4.65
2022-08-14T12:50:17.975Z,4.90
2022-08-14T12:51:21.721Z,5.00
2022-08-14T12:52:30.664Z,4.80
2022-08-14T12:53:38.331Z,4.60
2022-08-14T12:54:32.071Z,5.35
2022-08-14T12:55:23.183Z,4.82
2022-08-14T12:56:34.568Z,4.75
2022-08-14T12:57:39.562Z,4.40
2022-08-14T12:58:36.336Z,4.75
2022-08-14T12:59:42.625Z,4.90
2022-08-14T13:00:35.341Z,4.70
2022-08-14T13:01:31.584Z,4.68
2022-08-14T13:02:42.420Z,4.65
2022-08-14T13:03:38.706Z,4.80
2022-08-14T13:04:49.294Z,4.70
2022-08-14T13:05:41.833Z,5.00
2022-08-14T13:06:32.426Z,4.72
2022-08-14T13:07:24.121Z,4.82
2022-08-14T13:08:34.195Z,4.93
2022-08-14T13:09:35.673Z,4.47